Airfield :
LOGIN :

Register | Disclaimer

   EN    FR    IT 

 










Legend :    VFR   Marginal VFR   IFR   Intensive IFR   Very Intensive IFR
Visi :
Ceiling :
>= 8 km
>= 3000ft
5 to 8 km
1000 to 3000 ft
1500m to 5 km
500 to 1000 ft
800 to 1500m
200 to 500 ft
< 800m
< 200 ft
Symbols :   Thunderstorms  Fog  Heavy snow  Heavy precipitations  Wind > 20 kt
SIGMETs :     Misc.  Thunderstorms  Icing  Turbulence  Mountain Waves  Volcanic Ashes







- Airport Elevation : 74 ft
- IATA code : MRS
- Download approach charts


LFML - Marseille / Marignane

CURRENT METAR :
  • 221200Z AUTO 20011KT CAVOK 32/20 Q1021 NOSIG

EXPIRED METARs :
  • 221130Z AUTO 21011KT CAVOK 32/20 Q1021 NOSIG
  • 221100Z AUTO 22010KT CAVOK 31/20 Q1021 NOSIG
  • 221030Z AUTO 21009KT 180V260 CAVOK 31/19 Q1021 NOSIG
  • 221000Z AUTO 27008KT CAVOK 31/20 Q1021 BECMG 20013KT
  • 220930Z AUTO 30005KT CAVOK 29/19 Q1021 BECMG 20013KT

TAF TAF LFML
Valid from the 22 at 09:00 until the 23 at 15:00 UTC


220800Z 2209/2315 26007KT CAVOK TX33/2212Z TN21/2303Z
BECMG 2211/2212 20013KT
TEMPO 2216/2218 FEW010
BECMG 2218/2220 VRB03KT
BECMG 2307/2309 26007KT
ATIS : +33 4 42 31 15 15
No reported NOTAMs for that airfield.



MET'MAP, your aeronautical weather chart ! - Copyright ORBIFLY December 2007 - Disclaimer

ORBIFLY MET'MAP TEAM :

Programming & Development : Alexandra Zaïnal
Concept & Development : Baudouin d'Aumeries
Co-Development & Prog : Marc-Olivier Méhu
Technical & hardware support : Manuel Goepfert

Contact : metmap@orbifly.com




SOURCES & CREDITS :

   NOAA